createdAt,value
2018-09-28T00:01:16.205Z,78.09
2018-09-28T00:03:44.760Z,77.23
2018-09-28T00:06:13.257Z,78.70
2018-09-28T00:08:41.842Z,78.07
2018-09-28T00:11:10.469Z,78.28
2018-09-28T00:13:38.990Z,78.26
2018-09-28T00:16:07.545Z,79.03
2018-09-28T00:18:36.085Z,79.25
2018-09-28T00:21:05.633Z,79.17
2018-09-28T00:23:34.134Z,79.56
2018-09-28T00:26:03.831Z,80.17
2018-09-28T00:28:32.316Z,78.69
2018-09-28T00:31:00.901Z,78.00
2018-09-28T00:33:29.533Z,77.49
2018-09-28T00:35:58.269Z,77.57
2018-09-28T00:38:26.705Z,78.20
2018-09-28T00:40:55.949Z,78.39
2018-09-28T00:43:24.597Z,79.87
2018-09-28T00:45:53.157Z,79.37
2018-09-28T00:48:21.643Z,79.18
2018-09-28T00:50:50.607Z,79.97
2018-09-28T00:53:19.107Z,79.70
2018-09-28T00:55:47.628Z,79.97
2018-09-28T00:58:16.169Z,80.16
2018-09-28T01:00:44.681Z,79.40
2018-09-28T01:03:13.298Z,79.93
2018-09-28T01:05:41.812Z,79.17
2018-09-28T01:08:10.313Z,79.72
2018-09-28T01:10:38.849Z,80.51
2018-09-28T01:13:09.510Z,79.53
2018-09-28T01:15:38.049Z,79.72
2018-09-28T01:18:06.751Z,79.60
2018-09-28T01:20:35.641Z,79.18
2018-09-28T01:23:05.225Z,79.01
2018-09-28T01:25:33.881Z,79.68
2018-09-28T01:28:03.741Z,81.34
2018-09-28T01:30:32.332Z,80.87
2018-09-28T01:33:00.917Z,80.51
2018-09-28T01:35:29.433Z,81.36
2018-09-28T01:37:58.014Z,81.31
2018-09-28T01:40:26.614Z,80.27
2018-09-28T01:42:55.164Z,81.03
2018-09-28T01:45:23.859Z,81.50
2018-09-28T01:47:52.394Z,81.13
2018-09-28T01:50:21.907Z,80.13
2018-09-28T01:52:50.445Z,81.29
2018-09-28T01:55:19.177Z,81.98
2018-09-28T01:57:47.768Z,81.92
2018-09-28T02:00:16.289Z,81.69
2018-09-28T02:02:45.030Z,82.27
2018-09-28T02:05:13.626Z,83.40
2018-09-28T02:07:42.163Z,82.20
2018-09-28T02:10:10.962Z,82.13
2018-09-28T02:12:39.577Z,83.31
2018-09-28T02:15:08.088Z,83.33
2018-09-28T02:17:36.660Z,83.39
2018-09-28T02:20:05.228Z,83.76
2018-09-28T02:22:35.598Z,84.13
2018-09-28T02:25:05.675Z,85.64
2018-09-28T02:27:34.216Z,85.52
2018-09-28T02:30:04.664Z,85.29
2018-09-28T02:32:33.222Z,86.32
2018-09-28T02:35:03.102Z,86.68
2018-09-28T02:37:31.665Z,86.72
2018-09-28T02:40:00.219Z,87.12
2018-09-28T02:42:28.841Z,88.22
2018-09-28T02:44:57.391Z,90.30
2018-09-28T02:47:25.920Z,89.73
2018-09-28T02:49:54.476Z,90.45
2018-09-28T02:52:23.005Z,90.48
2018-09-28T02:54:51.500Z,90.16
2018-09-28T02:57:20.035Z,89.92
2018-09-28T02:59:48.555Z,90.37
2018-09-28T03:02:17.070Z,90.60
2018-09-28T03:04:45.613Z,90.77
2018-09-28T03:07:14.134Z,90.10
2018-09-28T03:09:42.670Z,90.17
2018-09-28T03:12:11.212Z,90.95
2018-09-28T03:14:39.973Z,90.83
2018-09-28T03:17:08.569Z,90.60
2018-09-28T03:19:37.071Z,90.76
2018-09-28T03:22:05.662Z,90.71
2018-09-28T03:24:36.439Z,91.02
2018-09-28T03:27:08.192Z,91.31
2018-09-28T03:29:36.731Z,91.12
2018-09-28T03:32:05.247Z,91.05
2018-09-28T03:34:33.850Z,90.83
2018-09-28T03:37:03.877Z,90.78
2018-09-28T03:39:32.382Z,90.58
2018-09-28T03:42:03.095Z,90.82
2018-09-28T03:44:31.580Z,90.21
2018-09-28T03:47:00.202Z,89.79
2018-09-28T03:49:28.812Z,90.39
2018-09-28T03:51:57.662Z,89.11
2018-09-28T03:54:26.188Z,88.36
2018-09-28T03:56:54.748Z,88.56
2018-09-28T03:59:23.395Z,88.24
2018-09-28T04:01:52.013Z,87.75
2018-09-28T04:04:20.568Z,86.82
2018-09-28T04:06:49.291Z,86.53
2018-09-28T04:09:17.765Z,85.54
2018-09-28T04:11:46.317Z,85.84
2018-09-28T04:14:16.512Z,85.81
2018-09-28T04:16:45.044Z,84.72
2018-09-28T04:19:13.580Z,84.11
2018-09-28T04:21:46.290Z,82.77
2018-09-28T04:24:14.832Z,83.78
2018-09-28T04:26:43.561Z,83.24
2018-09-28T04:29:12.080Z,81.52
2018-09-28T04:31:40.599Z,81.74
2018-09-28T04:34:09.383Z,80.94
2018-09-28T04:36:37.938Z,80.78
2018-09-28T04:39:08.411Z,80.85
2018-09-28T04:41:36.964Z,80.05
2018-09-28T04:44:08.687Z,81.15
2018-09-28T04:46:38.169Z,79.95
2018-09-28T04:49:06.935Z,80.23
2018-09-28T04:51:35.779Z,79.48
2018-09-28T04:54:05.344Z,80.01
2018-09-28T04:56:33.843Z,79.75
2018-09-28T04:59:03.803Z,79.62
2018-09-28T05:01:32.291Z,78.71
2018-09-28T05:04:03.115Z,79.10
2018-09-28T05:06:31.642Z,79.81
2018-09-28T05:09:00.356Z,78.88
2018-09-28T05:11:28.863Z,79.13
2018-09-28T05:13:57.361Z,79.22
2018-09-28T05:16:25.899Z,78.49
2018-09-28T05:18:54.383Z,77.91
2018-09-28T05:21:22.946Z,77.42
2018-09-28T05:23:51.477Z,77.74
2018-09-28T05:26:20.028Z,77.60
2018-09-28T05:28:48.524Z,78.16
2018-09-28T05:31:18.245Z,76.94
2018-09-28T05:33:46.813Z,77.49
2018-09-28T05:36:15.369Z,76.88
2018-09-28T05:38:43.864Z,75.61
2018-09-28T05:41:12.505Z,75.74
2018-09-28T05:43:41.051Z,75.67
2018-09-28T05:46:09.623Z,76.77
2018-09-28T05:48:38.800Z,77.07
2018-09-28T05:51:07.761Z,76.29
2018-09-28T05:53:36.588Z,77.21
2018-09-28T05:56:05.552Z,76.92
2018-09-28T05:58:39.304Z,76.77
2018-09-28T06:01:13.165Z,76.41
2018-09-28T06:03:46.844Z,75.66
2018-09-28T06:06:15.374Z,74.54
2018-09-28T06:08:43.884Z,74.40
2018-09-28T06:11:12.392Z,74.47
2018-09-28T06:13:40.904Z,74.14
2018-09-28T06:16:09.428Z,74.84
2018-09-28T06:18:38.080Z,74.79
2018-09-28T06:21:07.004Z,75.02
2018-09-28T06:23:35.478Z,74.97
2018-09-28T06:26:06.739Z,75.05
2018-09-28T06:28:35.281Z,75.30
2018-09-28T06:31:05.765Z,74.53
2018-09-28T06:33:34.285Z,74.91
2018-09-28T06:36:04.487Z,74.90
2018-09-28T06:38:33.046Z,74.54
2018-09-28T06:41:02.748Z,72.90
2018-09-28T06:43:31.252Z,73.83
2018-09-28T06:45:59.769Z,73.53
2018-09-28T06:48:28.311Z,72.78
2018-09-28T06:50:56.854Z,73.49
2018-09-28T06:53:25.356Z,72.81
2018-09-28T06:55:53.914Z,72.72
2018-09-28T06:58:22.538Z,71.72
2018-09-28T07:00:51.196Z,72.38
2018-09-28T07:03:19.708Z,72.15
2018-09-28T07:05:48.273Z,71.50
2018-09-28T07:08:16.750Z,71.34
2018-09-28T07:10:45.791Z,71.96
2018-09-28T07:13:14.672Z,72.03
2018-09-28T07:15:43.271Z,71.11
2018-09-28T07:18:11.837Z,71.47
2018-09-28T07:20:40.333Z,71.25
2018-09-28T07:23:08.905Z,70.80
2018-09-28T07:25:42.900Z,70.20
2018-09-28T07:28:11.542Z,69.15
2018-09-28T07:30:40.126Z,70.19
2018-09-28T07:33:08.894Z,69.35
2018-09-28T07:35:37.427Z,68.83
2018-09-28T07:38:05.973Z,67.39
2018-09-28T07:40:34.849Z,67.07
2018-09-28T07:43:04.424Z,67.81
2018-09-28T07:45:32.948Z,66.79
2018-09-28T07:48:02.871Z,66.96
2018-09-28T07:50:31.780Z,66.02
2018-09-28T07:53:00.308Z,65.33
2018-09-28T07:55:28.873Z,64.68
2018-09-28T07:57:57.408Z,64.46
2018-09-28T08:00:25.947Z,64.76
2018-09-28T08:02:54.479Z,64.79
2018-09-28T08:05:22.981Z,63.83
2018-09-28T08:07:51.612Z,63.91
2018-09-28T08:10:20.150Z,63.86
2018-09-28T08:12:48.747Z,62.30
2018-09-28T08:15:17.254Z,61.71
2018-09-28T08:17:45.904Z,62.69
2018-09-28T08:20:14.428Z,63.10
2018-09-28T08:22:42.936Z,62.19
2018-09-28T08:25:11.476Z,61.44
2018-09-28T08:27:39.987Z,61.26
2018-09-28T08:30:08.563Z,61.13
2018-09-28T08:32:37.068Z,61.92
2018-09-28T08:35:06.055Z,59.67
2018-09-28T08:37:34.564Z,60.14
2018-09-28T08:40:05.253Z,58.84
2018-09-28T08:42:33.761Z,58.30
2018-09-28T08:45:04.209Z,56.84
2018-09-28T08:47:33.024Z,56.41
2018-09-28T08:50:04.601Z,56.28
2018-09-28T08:52:33.174Z,55.17
2018-09-28T08:55:03.088Z,54.57
2018-09-28T08:57:31.634Z,54.13
2018-09-28T09:00:00.165Z,53.31
2018-09-28T09:02:28.718Z,52.34
2018-09-28T09:04:57.406Z,53.46
2018-09-28T09:07:26.365Z,52.90
2018-09-28T09:09:54.881Z,51.61
2018-09-28T09:12:24.403Z,52.47
2018-09-28T09:14:53.016Z,52.54
2018-09-28T09:17:21.551Z,53.30
2018-09-28T09:19:50.112Z,53.11
2018-09-28T09:22:18.649Z,54.26
2018-09-28T09:24:47.525Z,53.75
2018-09-28T09:27:16.040Z,54.68
2018-09-28T09:29:44.578Z,54.51
2018-09-28T09:32:13.101Z,55.07
2018-09-28T09:34:41.678Z,54.16
2018-09-28T09:37:10.231Z,53.14
2018-09-28T09:39:38.771Z,52.14
2018-09-28T09:42:07.307Z,52.93
2018-09-28T09:44:36.077Z,52.25
2018-09-28T09:47:05.686Z,52.15
2018-09-28T09:49:34.251Z,52.44
2018-09-28T09:52:06.154Z,52.44
2018-09-28T09:54:34.685Z,53.23
2018-09-28T09:57:07.233Z,52.06
2018-09-28T09:59:35.768Z,50.64
2018-09-28T10:02:10.488Z,50.97
2018-09-28T10:04:39.179Z,53.22
2018-09-28T10:07:07.879Z,53.71
2018-09-28T10:09:36.407Z,52.63
2018-09-28T10:12:05.028Z,53.19
2018-09-28T10:14:33.558Z,53.31
2018-09-28T10:17:03.826Z,52.81
2018-09-28T10:19:32.416Z,52.41
2018-09-28T10:22:03.148Z,51.71
2018-09-28T10:24:31.638Z,50.47
2018-09-28T10:27:00.216Z,51.19
2018-09-28T10:29:28.946Z,50.70
2018-09-28T10:32:04.505Z,51.84
2018-09-28T10:34:33.092Z,51.01
2018-09-28T10:37:03.195Z,51.96
2018-09-28T10:39:32.843Z,52.02
2018-09-28T10:42:04.078Z,53.83
2018-09-28T10:44:32.685Z,54.04
2018-09-28T10:47:03.211Z,55.01
2018-09-28T10:49:31.729Z,54.67
2018-09-28T10:52:00.448Z,52.90
2018-09-28T10:54:28.897Z,54.21
2018-09-28T10:56:57.436Z,54.65
2018-09-28T10:59:25.921Z,53.05
2018-09-28T11:01:54.456Z,52.06
2018-09-28T11:04:24.636Z,52.16
2018-09-28T11:06:53.172Z,50.45
2018-09-28T11:09:21.800Z,49.35
2018-09-28T11:11:50.424Z,49.46
2018-09-28T11:14:19.274Z,48.28
2018-09-28T11:16:48.139Z,48.50
2018-09-28T11:19:16.633Z,46.39
2018-09-28T11:21:45.209Z,46.06
2018-09-28T11:24:13.680Z,46.56
2018-09-28T11:26:42.241Z,47.23
2018-09-28T11:29:11.345Z,49.03
2018-09-28T11:31:39.818Z,49.65
2018-09-28T11:34:08.643Z,47.19
2018-09-28T11:36:37.133Z,50.46
2018-09-28T11:39:07.087Z,53.73
2018-09-28T11:41:35.613Z,54.56
2018-09-28T11:44:05.148Z,54.93
2018-09-28T11:46:33.675Z,54.46
2018-09-28T11:49:03.841Z,54.50
2018-09-28T11:51:32.627Z,53.68
2018-09-28T11:54:04.173Z,52.17
2018-09-28T11:56:32.680Z,50.46
2018-09-28T11:59:02.681Z,52.67
2018-09-28T12:01:31.232Z,52.51
2018-09-28T12:03:59.809Z,51.54
2018-09-28T12:06:28.408Z,51.90
2018-09-28T12:08:56.976Z,52.37
2018-09-28T12:11:25.521Z,52.35
2018-09-28T12:13:54.111Z,51.65
2018-09-28T12:16:22.628Z,51.33
2018-09-28T12:18:51.225Z,52.73
2018-09-28T12:21:19.678Z,53.67
2018-09-28T12:23:48.318Z,54.37
2018-09-28T12:26:16.885Z,54.10
2018-09-28T12:28:45.434Z,53.15
2018-09-28T12:31:13.973Z,52.06
2018-09-28T12:33:42.544Z,52.17
2018-09-28T12:36:11.185Z,52.52
2018-09-28T12:38:39.762Z,51.26
2018-09-28T12:41:08.331Z,52.79
2018-09-28T12:43:36.867Z,52.05
2018-09-28T12:46:06.342Z,49.60
2018-09-28T12:48:34.874Z,52.25
2018-09-28T12:51:05.075Z,48.53
2018-09-28T12:53:33.636Z,46.92
2018-09-28T12:56:03.701Z,46.14
2018-09-28T12:58:32.209Z,42.95
2018-09-28T13:01:00.792Z,43.07
2018-09-28T13:03:30.383Z,41.42
2018-09-28T13:05:58.926Z,42.23
2018-09-28T13:08:27.558Z,44.42
2018-09-28T13:10:56.022Z,46.69
2018-09-28T13:13:24.578Z,44.48
2018-09-28T13:15:53.217Z,44.37
2018-09-28T13:18:21.744Z,44.17
2018-09-28T13:20:50.469Z,43.42
2018-09-28T13:23:18.992Z,43.26
2018-09-28T13:25:47.534Z,43.59
2018-09-28T13:28:16.046Z,43.74
2018-09-28T13:30:45.329Z,40.92
2018-09-28T13:33:14.109Z,40.24
2018-09-28T13:35:42.710Z,39.03
2018-09-28T13:38:11.359Z,39.19
2018-09-28T13:40:39.829Z,40.62
2018-09-28T13:43:08.355Z,39.56
2018-09-28T13:45:36.914Z,40.67
2018-09-28T13:48:05.442Z,40.42
2018-09-28T13:50:34.033Z,40.38
2018-09-28T13:53:04.401Z,41.34
2018-09-28T13:55:32.956Z,40.77
2018-09-28T13:58:03.039Z,42.75
2018-09-28T14:00:31.569Z,46.05
2018-09-28T14:03:00.104Z,49.60
2018-09-28T14:05:28.717Z,50.03
2018-09-28T14:07:57.231Z,50.88
2018-09-28T14:10:25.911Z,51.28
2018-09-28T14:12:54.288Z,50.24
2018-09-28T14:15:22.868Z,48.18
2018-09-28T14:17:51.569Z,47.47
2018-09-28T14:20:20.500Z,49.71
2018-09-28T14:22:49.168Z,47.84
2018-09-28T14:25:17.518Z,48.16
2018-09-28T14:27:46.106Z,48.14
2018-09-28T14:30:14.689Z,46.52
2018-09-28T14:32:43.313Z,47.76
2018-09-28T14:35:11.731Z,48.48
2018-09-28T14:37:40.636Z,47.35
2018-09-28T14:40:09.657Z,48.53
2018-09-28T14:42:38.333Z,48.02
2018-09-28T14:45:06.984Z,46.63
2018-09-28T14:47:35.797Z,45.16
2018-09-28T14:50:05.322Z,45.87
2018-09-28T14:52:33.922Z,46.71
2018-09-28T14:55:03.869Z,48.59
2018-09-28T14:57:33.616Z,46.45
2018-09-28T15:00:07.397Z,45.76
2018-09-28T15:02:35.952Z,46.93
2018-09-28T15:05:09.619Z,45.34
2018-09-28T15:07:38.163Z,46.85
2018-09-28T15:10:06.713Z,47.37
2018-09-28T15:12:35.345Z,47.90
2018-09-28T15:15:05.258Z,47.49
2018-09-28T15:17:33.795Z,47.57
2018-09-28T15:20:05.315Z,47.08
2018-09-28T15:22:33.842Z,47.16
2018-09-28T15:25:05.166Z,48.17
2018-09-28T15:27:33.675Z,49.73
2018-09-28T15:30:03.794Z,50.12
2018-09-28T15:32:32.489Z,50.31
2018-09-28T15:35:04.299Z,51.18
2018-09-28T15:37:33.299Z,50.20
2018-09-28T15:40:03.534Z,50.57
2018-09-28T15:42:32.050Z,50.71
2018-09-28T15:45:00.545Z,50.91
2018-09-28T15:47:29.108Z,50.11
2018-09-28T15:49:57.664Z,50.92
2018-09-28T15:52:26.231Z,51.15
2018-09-28T15:54:54.881Z,52.67
2018-09-28T15:57:23.386Z,53.42
2018-09-28T15:59:52.458Z,54.23
2018-09-28T16:02:21.346Z,54.28
2018-09-28T16:04:49.843Z,54.32
2018-09-28T16:07:18.709Z,54.38
2018-09-28T16:09:47.245Z,53.90
2018-09-28T16:12:15.829Z,53.72
2018-09-28T16:14:44.340Z,54.19
2018-09-28T16:17:12.882Z,53.26
2018-09-28T16:19:41.542Z,53.30
2018-09-28T16:22:10.053Z,52.56
2018-09-28T16:24:38.828Z,53.05
2018-09-28T16:27:07.683Z,52.32
2018-09-28T16:29:36.196Z,52.43
2018-09-28T16:32:05.708Z,53.05
2018-09-28T16:34:34.228Z,53.62
2018-09-28T16:37:04.799Z,54.92
2018-09-28T16:39:34.618Z,55.13
2018-09-28T16:42:05.055Z,54.87
2018-09-28T16:44:33.664Z,56.16
2018-09-28T16:47:03.685Z,55.30
2018-09-28T16:49:32.330Z,55.65
2018-09-28T16:52:00.825Z,55.31
2018-09-28T16:54:29.337Z,56.46
2018-09-28T16:56:58.356Z,55.90
2018-09-28T16:59:26.922Z,55.41
2018-09-28T17:01:55.424Z,55.52
2018-09-28T17:04:24.031Z,55.29
2018-09-28T17:06:52.549Z,56.15
2018-09-28T17:09:21.294Z,55.92
2018-09-28T17:11:49.744Z,56.44
2018-09-28T17:14:19.364Z,56.78
2018-09-28T17:16:47.919Z,56.52
2018-09-28T17:19:16.432Z,56.47
2018-09-28T17:21:44.998Z,56.21
2018-09-28T17:24:13.502Z,56.36
2018-09-28T17:26:42.464Z,57.06
2018-09-28T17:29:11.022Z,56.76
2018-09-28T17:31:39.641Z,57.26
2018-09-28T17:34:08.168Z,58.47
2018-09-28T17:36:37.090Z,58.37
2018-09-28T17:39:08.893Z,59.19
2018-09-28T17:41:37.606Z,59.45
2018-09-28T17:44:06.243Z,59.18
2018-09-28T17:46:34.997Z,59.57
2018-09-28T17:49:05.721Z,59.98
2018-09-28T17:51:34.261Z,60.32
2018-09-28T17:54:04.948Z,60.74
2018-09-28T17:56:34.462Z,62.08
2018-09-28T17:59:04.918Z,61.54
2018-09-28T18:01:33.441Z,61.85
2018-09-28T18:04:03.098Z,62.06
2018-09-28T18:06:31.993Z,62.85
2018-09-28T18:09:00.494Z,62.46
2018-09-28T18:11:29.005Z,62.91
2018-09-28T18:13:57.588Z,63.19
2018-09-28T18:16:26.139Z,63.59
2018-09-28T18:18:54.693Z,63.45
2018-09-28T18:21:23.251Z,63.70
2018-09-28T18:23:51.973Z,63.94
2018-09-28T18:26:20.477Z,64.40
2018-09-28T18:28:49.024Z,64.48
2018-09-28T18:31:17.512Z,64.43
2018-09-28T18:33:46.015Z,64.69
2018-09-28T18:36:14.900Z,65.01
2018-09-28T18:38:43.458Z,65.22
2018-09-28T18:41:12.030Z,65.25
2018-09-28T18:43:40.581Z,65.91
2018-09-28T18:46:09.202Z,65.78
2018-09-28T18:48:37.773Z,66.42
2018-09-28T18:51:06.361Z,66.74
2018-09-28T18:53:35.369Z,66.89
2018-09-28T18:56:06.685Z,66.53
2018-09-28T18:58:35.313Z,66.74
2018-09-28T19:01:05.201Z,67.40
2018-09-28T19:03:33.910Z,65.81
2018-09-28T19:06:03.789Z,66.42
2018-09-28T19:08:32.365Z,66.57
2018-09-28T19:11:00.969Z,66.39
2018-09-28T19:13:29.540Z,67.12
2018-09-28T19:15:58.454Z,67.09
2018-09-28T19:18:27.033Z,67.28
2018-09-28T19:20:55.801Z,66.49
2018-09-28T19:23:24.400Z,67.03
2018-09-28T19:25:53.752Z,67.41
2018-09-28T19:28:22.488Z,66.48
2018-09-28T19:30:51.139Z,67.27
2018-09-28T19:33:19.650Z,67.83
2018-09-28T19:35:48.351Z,68.06
2018-09-28T19:38:17.038Z,68.84
2018-09-28T19:40:45.567Z,68.59
2018-09-28T19:43:14.137Z,68.42
2018-09-28T19:45:42.731Z,69.04
2018-09-28T19:48:11.450Z,69.60
2018-09-28T19:50:40.127Z,69.24
2018-09-28T19:53:08.659Z,69.90
2018-09-28T19:55:37.232Z,69.47
2018-09-28T19:58:06.010Z,69.96
2018-09-28T20:00:34.994Z,70.44
2018-09-28T20:03:05.691Z,70.05
2018-09-28T20:05:34.339Z,70.19
2018-09-28T20:08:04.532Z,70.63
2018-09-28T20:10:33.492Z,70.71
2018-09-28T20:13:04.646Z,70.91
2018-09-28T20:15:33.162Z,70.29
2018-09-28T20:18:03.156Z,69.91
2018-09-28T20:20:31.702Z,70.59
2018-09-28T20:23:00.211Z,71.33
2018-09-28T20:25:28.820Z,71.78
2018-09-28T20:27:57.375Z,72.61
2018-09-28T20:30:26.138Z,73.21
2018-09-28T20:32:54.647Z,73.47
2018-09-28T20:35:23.155Z,75.47
2018-09-28T20:37:51.886Z,74.84
2018-09-28T20:40:20.599Z,75.16
2018-09-28T20:42:49.203Z,75.58
2018-09-28T20:45:17.807Z,75.47
2018-09-28T20:47:46.310Z,75.06
2018-09-28T20:50:14.932Z,75.13
2018-09-28T20:52:44.070Z,74.94
2018-09-28T20:55:12.612Z,75.19
2018-09-28T20:57:41.248Z,75.45
2018-09-28T21:00:09.775Z,75.66
2018-09-28T21:02:39.512Z,75.91
2018-09-28T21:05:07.681Z,76.28
2018-09-28T21:07:36.360Z,76.10
2018-09-28T21:10:05.165Z,76.51
2018-09-28T21:12:33.894Z,76.37
2018-09-28T21:15:03.380Z,76.87
2018-09-28T21:17:31.917Z,76.87
2018-09-28T21:20:00.425Z,76.99
2018-09-28T21:22:28.934Z,76.75
2018-09-28T21:24:57.423Z,77.03
2018-09-28T21:27:26.322Z,77.42
2018-09-28T21:29:54.829Z,77.47
2018-09-28T21:32:23.333Z,78.02
2018-09-28T21:34:51.896Z,77.54
2018-09-28T21:37:20.396Z,78.26
2018-09-28T21:39:48.930Z,79.26
2018-09-28T21:42:17.455Z,79.47
2018-09-28T21:44:45.987Z,80.25
2018-09-28T21:47:14.489Z,80.39
2018-09-28T21:49:43.022Z,81.97
2018-09-28T21:52:11.573Z,81.41
2018-09-28T21:54:44.945Z,81.55
2018-09-28T21:57:13.441Z,82.42
2018-09-28T21:59:42.381Z,82.12
2018-09-28T22:02:11.004Z,82.54
2018-09-28T22:04:39.529Z,82.96
2018-09-28T22:07:08.030Z,84.12
2018-09-28T22:09:36.560Z,83.24
2018-09-28T22:12:06.181Z,83.10
2018-09-28T22:14:34.697Z,83.69
2018-09-28T22:17:04.437Z,84.17
2018-09-28T22:19:33.027Z,84.55
2018-09-28T22:22:03.380Z,84.11
2018-09-28T22:24:32.014Z,85.24
2018-09-28T22:27:00.565Z,85.14
2018-09-28T22:29:29.076Z,84.72
2018-09-28T22:31:57.721Z,84.66
2018-09-28T22:34:26.570Z,85.06
2018-09-28T22:36:55.326Z,85.72
2018-09-28T22:39:23.846Z,85.95
2018-09-28T22:41:52.387Z,86.10
2018-09-28T22:44:20.885Z,86.26
2018-09-28T22:46:49.370Z,85.87
2018-09-28T22:49:18.955Z,85.33
2018-09-28T22:51:47.589Z,85.66
2018-09-28T22:54:16.126Z,85.21
2018-09-28T22:56:44.616Z,86.19
2018-09-28T22:59:13.296Z,87.24
2018-09-28T23:01:42.434Z,87.04
2018-09-28T23:04:10.938Z,86.38
2018-09-28T23:06:39.974Z,86.33
2018-09-28T23:09:09.241Z,86.94
2018-09-28T23:11:38.033Z,86.67
2018-09-28T23:14:06.573Z,86.77
2018-09-28T23:16:36.871Z,87.74
2018-09-28T23:19:05.357Z,87.22
2018-09-28T23:21:33.935Z,86.58
2018-09-28T23:24:03.754Z,87.07
2018-09-28T23:26:32.383Z,87.56
2018-09-28T23:29:00.948Z,87.64
2018-09-28T23:31:29.468Z,88.36
2018-09-28T23:33:58.009Z,88.03
2018-09-28T23:36:26.700Z,88.08
2018-09-28T23:38:55.170Z,88.21
2018-09-28T23:41:23.647Z,88.67
2018-09-28T23:43:52.151Z,87.90
2018-09-28T23:46:20.878Z,88.24
2018-09-28T23:48:49.411Z,88.56
2018-09-28T23:51:17.908Z,88.00
2018-09-28T23:53:46.444Z,88.33
2018-09-28T23:56:14.969Z,88.79
2018-09-28T23:58:43.520Z,88.16
